Airfield :
LOGIN :

Register | Disclaimer

   EN    FR    IT 

 










Legend :    VFR   Marginal VFR   IFR   Intensive IFR   Very Intensive IFR
Visi :
Ceiling :
>= 8 km
>= 3000ft
5 to 8 km
1000 to 3000 ft
1500m to 5 km
500 to 1000 ft
800 to 1500m
200 to 500 ft
< 800m
< 200 ft
Symbols :   Thunderstorms  Fog  Heavy snow  Heavy precipitations  Wind > 20 kt
SIGMETs :     Misc.  Thunderstorms  Icing  Turbulence  Mountain Waves  Volcanic Ashes






- Airport Elevation : 146 ft
- IATA code : RKE


EKRK - Roskilde Tune

CURRENT METAR :
  • 200520Z AUTO 24006KT 5000 OVC004/// 04/03 Q1040 99/350193

EXPIRED METARs :
  • 200450Z AUTO 25006KT 6000 BKN007/// 03/03 Q1040 99/350193
  • 200420Z AUTO 25006KT 7000 OVC008/// 03/03 Q1040 99/350193
  • 200350Z AUTO 25005KT 8000 OVC008/// 03/03 Q1040 99/350193
  • 200320Z AUTO 25005KT 9999 OVC009/// 03/03 Q1040 99/350193
  • 200250Z AUTO 25003KT 9999 OVC010/// 03/03 Q1040 99/350193

TAF TAF EKRK
Valid from the 20 at 06:00 until the 20 at 15:00 UTC


200525Z 2006/2015 25008KT 8000 SCT010
TEMPO 2006/2010 4000 BR BKN004
BECMG 2013/2015 BKN012



MET'MAP, your aeronautical weather chart ! - Copyright ORBIFLY December 2007 - Disclaimer

ORBIFLY MET'MAP TEAM :

Programming & Development : Alexandra Zaïnal
Concept & original design : Baudouin d'Aumeries
Assistance for programming : Marc-Olivier Méhu
Technical & hardware support : Manuel Goepfert

Contact : metmap@orbifly.com




SOURCES & CREDITS :

   NOAA